Time;durP1;ratioP1;P1;durP2;ratioP2;P2;SDS_P1;SDS_P2;PMS_P1;PMS_P2;Temp;Humidity;BMP_temperature;BMP_pressure;BME280_temperature;BME280_humidity;BME280_pressure;Samples;Min_cycle;Max_cycle;Signal;HPM_P1;HPM_P2
2022/04/11 00:01:23;;;;;;;0.00;0.00;;;;;;;11.35;53.30;100469.34;7354708;19;20099;-64
2022/04/11 00:03:49;;;;;;;0.00;0.00;;;;;;;11.34;53.49;100464.13;7356265;19;20789;-64
2022/04/11 00:06:14;;;;;;;0.00;0.00;;;;;;;11.43;54.07;100482.16;7357973;19;20010;-64
2022/04/11 00:08:40;;;;;;;0.10;0.10;;;;;;;11.34;54.01;100458.91;7358065;19;20038;-65
2022/04/11 00:11:05;;;;;;;0.00;0.00;;;;;;;11.40;54.17;100463.94;7358498;19;20086;-64
2022/04/11 00:13:31;;;;;;;0.00;0.00;;;;;;;11.39;54.30;100470.06;7356564;19;20471;-64
2022/04/11 00:15:56;;;;;;;0.00;0.00;;;;;;;11.40;53.90;100484.84;7358735;19;20059;-65
2022/04/11 00:18:21;;;;;;;0.00;0.00;;;;;;;11.34;53.97;100457.13;7347585;19;20018;-64
2022/04/11 00:20:47;;;;;;;0.00;0.00;;;;;;;11.25;54.17;100452.19;7360597;19;20034;-65
2022/04/11 00:23:13;;;;;;;0.00;0.00;;;;;;;11.35;54.22;100463.22;7360870;19;20493;-65
2022/04/11 00:25:39;;;;;;;0.00;0.00;;;;;;;11.35;53.76;100458.88;7360235;19;20023;-64
2022/04/11 00:28:04;;;;;;;0.00;0.00;;;;;;;11.35;54.19;100455.38;7360335;19;20018;-63
2022/04/11 00:30:30;;;;;;;0.00;0.00;;;;;;;11.29;53.89;100448.56;7358531;19;20104;-64
2022/04/11 00:32:55;;;;;;;0.00;0.00;;;;;;;11.26;53.79;100440.84;7352538;19;20035;-65
2022/04/11 00:35:21;;;;;;;0.00;0.00;;;;;;;11.32;53.78;100458.94;7356619;19;20078;-64
2022/04/11 00:37:46;;;;;;;0.00;0.00;;;;;;;11.32;54.01;100452.88;7356476;19;20572;-65
2022/04/11 00:40:11;;;;;;;0.00;0.00;;;;;;;11.32;54.13;100458.94;7353648;19;20010;-65
2022/04/11 00:42:37;;;;;;;0.00;0.00;;;;;;;11.31;54.16;100440.72;7349914;19;20017;-64
2022/04/11 00:45:03;;;;;;;0.05;0.05;;;;;;;11.30;54.34;100450.28;7355668;19;20021;-65
2022/04/11 00:47:29;;;;;;;0.00;0.00;;;;;;;11.24;54.44;100423.47;7359772;19;20721;-64
2022/04/11 00:50:04;;;;;;;0.00;0.00;;;;;;;11.30;54.61;100429.38;7350394;19;20018;-64
2022/04/11 00:52:32;;;;;;;0.00;0.00;;;;;;;11.28;54.60;100425.09;7357499;19;20074;-64
2022/04/11 00:54:58;;;;;;;0.00;0.00;;;;;;;11.27;54.83;100432.09;7352153;19;20014;-65
2022/04/11 00:57:25;;;;;;;0.00;0.00;;;;;;;11.28;54.92;100438.19;7354228;19;20794;-65
2022/04/11 00:59:52;;;;;;;0.00;0.00;;;;;;;11.29;54.72;100429.44;7357495;19;20014;-64
2022/04/11 01:02:17;;;;;;;0.00;0.00;;;;;;;11.25;55.17;100436.50;7352082;19;20011;-64
2022/04/11 01:04:43;;;;;;;0.00;0.00;;;;;;;11.25;55.13;100430.41;7350834;19;20009;-64
2022/04/11 01:07:08;;;;;;;0.10;0.10;;;;;;;11.27;54.75;100426.00;7354409;19;20035;-64
2022/04/11 01:09:34;;;;;;;0.08;0.08;;;;;;;11.12;54.76;100382.91;7352130;19;20006;-65
2022/04/11 01:12:01;;;;;;;0.00;0.00;;;;;;;11.25;54.49;100405.13;7348915;19;20010;-65
2022/04/11 01:14:26;;;;;;;0.00;0.00;;;;;;;11.24;54.35;100413.03;7354096;19;20011;-64
2022/04/11 01:16:53;;;;;;;0.00;0.00;;;;;;;11.22;54.03;100409.63;7350444;19;20922;-65
2022/04/11 01:19:19;;;;;;;0.03;0.03;;;;;;;11.22;54.07;100405.25;7356826;19;20010;-64
2022/04/11 01:21:48;;;;;;;0.00;0.00;;;;;;;11.15;53.83;100391.50;7359738;19;20398;-63
2022/04/11 01:24:20;;;;;;;0.00;0.00;;;;;;;11.20;53.95;100395.72;7357263;19;20007;-64
2022/04/11 01:26:46;;;;;;;0.00;0.00;;;;;;;11.21;53.47;100397.44;7359075;19;20014;-65
2022/04/11 01:29:12;;;;;;;0.00;0.00;;;;;;;11.21;53.59;100384.38;7359063;19;22381;-65
2022/04/11 01:31:38;;;;;;;0.00;0.00;;;;;;;11.21;54.10;100387.00;7357841;19;20956;-64
2022/04/11 01:34:04;;;;;;;0.00;0.00;;;;;;;11.14;54.25;100384.53;7360342;19;20252;-64
2022/04/11 01:36:29;;;;;;;0.00;0.00;;;;;;;11.07;53.93;100353.44;7360076;19;20029;-65
2022/04/11 01:38:55;;;;;;;0.00;0.00;;;;;;;11.20;54.21;100380.03;7352464;19;20010;-65
2022/04/11 01:41:20;;;;;;;0.00;0.00;;;;;;;11.18;54.70;100373.09;7356051;19;20034;-64
2022/04/11 01:43:46;;;;;;;0.00;0.00;;;;;;;11.17;54.71;100366.16;7356284;19;20019;-65
2022/04/11 01:46:12;;;;;;;0.00;0.00;;;;;;;11.16;55.25;100364.47;7352920;19;20003;-64
2022/04/11 01:48:37;;;;;;;0.00;0.00;;;;;;;11.16;55.46;100363.63;7357249;19;20017;-64
2022/04/11 01:51:03;;;;;;;0.00;0.00;;;;;;;11.13;55.44;100361.09;7358042;19;20048;-64
2022/04/11 01:53:29;;;;;;;0.00;0.00;;;;;;;11.15;55.89;100367.09;7361319;19;20010;-64
2022/04/11 01:55:54;;;;;;;0.00;0.00;;;;;;;11.11;56.38;100355.06;7355333;19;20012;-64
2022/04/11 01:58:20;;;;;;;0.00;0.00;;;;;;;11.14;56.22;100361.03;7348702;19;20025;-64
2022/04/11 02:00:46;;;;;;;0.00;0.00;;;;;;;11.14;56.21;100360.19;7350362;19;20021;-64
2022/04/11 02:03:11;;;;;;;0.00;0.00;;;;;;;11.13;56.20;100346.25;7339307;19;20013;-64
2022/04/11 02:05:38;;;;;;;0.00;0.00;;;;;;;10.97;56.12;100321.50;7352616;19;20038;-65
2022/04/11 02:08:06;;;;;;;0.00;0.00;;;;;;;11.12;56.68;100355.00;7353746;19;20862;-65
2022/04/11 02:10:31;;;;;;;0.00;0.00;;;;;;;11.06;56.45;100326.44;7354120;19;20030;-64
2022/04/11 02:12:58;;;;;;;0.00;0.00;;;;;;;11.09;56.89;100341.16;7342756;19;20006;-64
2022/04/11 02:15:23;;;;;;;0.00;0.00;;;;;;;11.08;56.85;100335.09;7351321;19;20031;-65
2022/04/11 02:17:50;;;;;;;0.00;0.00;;;;;;;10.95;56.37;100318.09;7354676;19;20022;-64
2022/04/11 02:20:16;;;;;;;0.00;0.00;;;;;;;11.09;57.11;100338.56;7350283;19;20471;-65
2022/04/11 02:22:56;;;;;;;0.00;0.00;;;;;;;11.08;55.83;100339.47;7355052;19;21349;-64
2022/04/11 02:25:24;;;;;;;0.00;0.00;;;;;;;11.08;56.09;100345.53;7348200;19;20710;-65
2022/04/11 02:27:50;;;;;;;;;;;;;;;11.11;54.97;100340.22;7352245;19;20031;-65
2022/04/11 02:30:16;;;;;;;0.00;0.00;;;;;;;11.07;56.59;100333.38;7351044;19;20259;-64
2022/04/11 02:32:42;;;;;;;0.08;0.08;;;;;;;11.06;57.01;100333.44;7351373;19;20009;-65
2022/04/11 02:35:09;;;;;;;0.00;0.00;;;;;;;10.98;56.66;100320.59;7350219;19;20074;-64
2022/04/11 02:37:34;;;;;;;0.00;0.00;;;;;;;10.89;56.60;100302.56;7348831;19;20021;-63
2022/04/11 02:40:01;;;;;;;0.03;0.03;;;;;;;10.95;57.41;100312.88;7348304;19;20002;-64
2022/04/11 02:42:27;;;;;;;0.00;0.00;;;;;;;11.01;57.40;100314.44;7350636;19;20076;-65
2022/04/11 02:44:54;;;;;;;0.10;0.10;;;;;;;10.92;57.59;100292.06;7350518;19;20585;-63
2022/04/11 02:47:20;;;;;;;0.00;0.00;;;;;;;10.86;57.60;100279.19;7351772;19;20014;-64
2022/04/11 02:49:46;;;;;;;0.00;0.00;;;;;;;11.02;57.20;100305.69;7351269;19;20014;-64
2022/04/11 02:52:12;;;;;;;0.00;0.00;;;;;;;11.02;57.53;100292.63;7350508;19;20025;-64
2022/04/11 02:54:38;;;;;;;0.00;0.00;;;;;;;10.90;57.12;100271.22;7353388;19;21010;-64
2022/04/11 02:57:04;;;;;;;0.00;0.00;;;;;;;11.00;57.44;100284.84;7347495;19;20010;-63
2022/04/11 02:59:29;;;;;;;0.00;0.00;;;;;;;10.88;57.50;100253.84;7333387;19;20026;-64
2022/04/11 03:01:56;;;;;;;0.00;0.00;;;;;;;10.86;57.50;100247.84;7352967;19;20985;-65
2022/04/11 03:04:22;;;;;;;0.00;0.00;;;;;;;10.97;57.47;100253.56;7349469;19;20007;-63
2022/04/11 03:06:47;;;;;;;0.05;0.05;;;;;;;10.94;57.82;100248.44;7344178;19;20021;-64
2022/04/11 03:09:12;;;;;;;0.00;0.00;;;;;;;10.90;57.63;100234.63;7350562;19;20015;-64
2022/04/11 03:11:38;;;;;;;0.10;0.10;;;;;;;10.92;57.04;100229.34;7351207;19;20014;-64
2022/04/11 03:14:03;;;;;;;0.00;0.00;;;;;;;10.95;57.17;100234.50;7342258;19;20014;-65
2022/04/11 03:16:29;;;;;;;0.00;0.00;;;;;;;10.93;56.66;100220.59;7350234;19;20006;-64
2022/04/11 03:18:54;;;;;;;0.00;0.00;;;;;;;10.84;56.97;100195.63;7350888;19;20035;-65
2022/04/11 03:21:19;;;;;;;0.00;0.00;;;;;;;10.75;56.82;100176.81;7353621;19;20010;-65
2022/04/11 03:23:45;;;;;;;0.00;0.00;;;;;;;10.89;56.66;100200.69;7351784;19;20014;-64
2022/04/11 03:26:11;;;;;;;0.00;0.00;;;;;;;10.87;56.02;100199.91;7346173;19;20884;-65
2022/04/11 03:28:36;;;;;;;0.00;0.00;;;;;;;10.86;56.16;100192.97;7357046;19;20044;-64
2022/04/11 03:31:01;;;;;;;0.00;0.00;;;;;;;10.82;56.25;100181.78;7358764;19;20093;-64
2022/04/11 03:33:27;;;;;;;0.00;0.00;;;;;;;10.83;56.11;100180.00;7361278;19;20115;-65
2022/04/11 03:35:52;;;;;;;0.00;0.00;;;;;;;10.76;55.76;100166.31;7363378;19;20010;-65
2022/04/11 03:38:18;;;;;;;0.00;0.00;;;;;;;10.79;55.79;100167.94;7358778;19;20081;-64
2022/04/11 03:40:43;;;;;;;0.00;0.00;;;;;;;10.76;56.07;100150.63;7347304;19;20094;-64
2022/04/11 03:43:09;;;;;;;0.00;0.00;;;;;;;10.77;55.74;100148.88;7360341;19;20607;-65
2022/04/11 03:45:35;;;;;;;0.00;0.00;;;;;;;10.74;55.85;100138.50;7363374;19;20026;-64
2022/04/11 03:48:00;;;;;;;0.00;0.00;;;;;;;10.73;55.59;100135.03;7363705;19;20010;-65
2022/04/11 03:50:25;;;;;;;0.10;0.10;;;;;;;10.71;55.69;100141.25;7360316;19;20018;-65
2022/04/11 03:52:51;;;;;;;0.00;0.00;;;;;;;10.70;55.32;100121.25;7350137;19;20466;-64
2022/04/11 03:55:16;;;;;;;0.00;0.00;;;;;;;10.67;55.50;100113.50;7362212;19;20014;-64
2022/04/11 03:57:42;;;;;;;0.00;0.00;;;;;;;10.63;55.22;100100.53;7353047;19;20021;-64
2022/04/11 04:00:08;;;;;;;0.00;0.00;;;;;;;10.64;55.11;100104.88;7355803;19;20011;-64
2022/04/11 04:02:34;;;;;;;0.10;0.10;;;;;;;10.59;54.56;100101.56;7361174;19;20021;-62
2022/04/11 04:04:59;;;;;;;0.00;0.00;;;;;;;10.60;54.85;100102.44;7354674;19;20379;-64
2022/04/11 04:07:25;;;;;;;0.00;0.00;;;;;;;10.63;54.57;100118.81;7361202;19;20006;-64
2022/04/11 04:09:51;;;;;;;0.00;0.00;;;;;;;10.62;54.63;100106.69;7360079;19;20030;-64
2022/04/11 04:12:20;;;;;;;0.00;0.00;;;;;;;10.63;54.68;100116.22;7350361;19;20007;-64
2022/04/11 04:14:47;;;;;;;0.00;0.00;;;;;;;10.54;54.49;100113.03;7356821;19;20018;-64
2022/04/11 04:17:12;;;;;;;0.00;0.00;;;;;;;10.58;54.70;100115.50;7357208;19;20669;-65
2022/04/11 04:19:38;;;;;;;0.00;0.00;;;;;;;10.56;54.40;100119.94;7359508;19;20014;-64
2022/04/11 04:22:04;;;;;;;0.00;0.00;;;;;;;10.54;54.59;100106.09;7357312;19;20006;-65
2022/04/11 04:24:31;;;;;;;0.00;0.00;;;;;;;10.49;54.55;100099.28;7359530;19;20018;-64
2022/04/11 04:26:57;;;;;;;0.00;0.00;;;;;;;10.55;54.48;100086.06;7351055;19;20010;-64
2022/04/11 04:29:22;;;;;;;0.00;0.00;;;;;;;10.53;54.49;100086.09;7363220;19;20019;-64
2022/04/11 04:31:49;;;;;;;0.00;0.00;;;;;;;10.45;54.67;100076.81;7355265;19;20729;-63
2022/04/11 04:34:15;;;;;;;0.00;0.00;;;;;;;10.52;54.70;100073.94;7358833;19;20031;-65
2022/04/11 04:36:40;;;;;;;0.00;0.00;;;;;;;10.52;54.19;100070.47;7351541;19;20336;-65
2022/04/11 04:39:06;;;;;;;0.00;0.00;;;;;;;10.50;55.03;100060.09;7356235;19;20044;-65
2022/04/11 04:41:31;;;;;;;0.00;0.00;;;;;;;10.51;54.81;100072.25;7355193;19;20032;-63
2022/04/11 04:43:56;;;;;;;0.00;0.00;;;;;;;10.50;54.67;100080.97;7361007;19;20010;-65
2022/04/11 04:46:22;;;;;;;0.00;0.00;;;;;;;10.50;54.69;100086.19;7352535;19;20011;-63
2022/04/11 04:48:47;;;;;;;0.00;0.00;;;;;;;10.48;54.92;100082.75;7360286;19;20014;-64
2022/04/11 04:51:13;;;;;;;0.00;0.00;;;;;;;10.49;54.62;100102.78;7357668;19;20050;-63
2022/04/11 04:53:38;;;;;;;0.10;0.10;;;;;;;10.45;55.00;100103.75;7358803;19;20089;-65
2022/04/11 04:56:04;;;;;;;0.00;0.00;;;;;;;10.45;54.82;100098.53;7357693;19;20393;-65
2022/04/11 04:58:29;;;;;;;0.00;0.00;;;;;;;10.43;54.51;100089.88;7354504;19;20026;-64
2022/04/11 05:00:55;;;;;;;0.00;0.00;;;;;;;10.39;54.90;100093.50;7355116;19;20018;-65
2022/04/11 05:03:20;;;;;;;0.00;0.00;;;;;;;10.44;54.99;100107.28;7354149;19;20014;-64
2022/04/11 05:05:45;;;;;;;0.00;0.00;;;;;;;10.32;55.18;100076.34;7353557;19;20354;-65
2022/04/11 05:08:11;;;;;;;0.00;0.00;;;;;;;10.43;55.06;100104.69;7359916;19;20014;-64
2022/04/11 05:10:36;;;;;;;0.00;0.00;;;;;;;10.43;55.07;100089.88;7360528;19;20453;-63
2022/04/11 05:13:01;;;;;;;0.00;0.00;;;;;;;10.43;54.99;100089.88;7349691;19;20015;-65
2022/04/11 05:15:27;;;;;;;0.00;0.00;;;;;;;10.41;55.18;100086.50;7361387;19;20022;-65
2022/04/11 05:17:53;;;;;;;0.00;0.00;;;;;;;10.43;55.53;100066.41;7352809;19;20060;-64
2022/04/11 05:20:18;;;;;;;0.03;0.03;;;;;;;10.45;55.04;100061.16;7360082;19;20014;-65
2022/04/11 05:22:43;;;;;;;0.00;0.00;;;;;;;10.44;55.40;100044.63;7349178;19;20641;-64
2022/04/11 05:25:09;;;;;;;0.00;0.00;;;;;;;10.17;54.93;99985.47;7355689;19;20014;-64
2022/04/11 05:27:34;;;;;;;0.00;0.00;;;;;;;10.48;55.11;100030.56;7358188;19;20022;-64
2022/04/11 05:30:00;;;;;;;0.00;0.00;;;;;;;10.49;55.04;100037.50;7353289;19;20007;-64
2022/04/11 05:32:26;;;;;;;0.00;0.00;;;;;;;10.50;55.40;100043.59;7354168;19;20022;-63
2022/04/11 05:34:51;;;;;;;0.00;0.00;;;;;;;10.51;54.84;100047.88;7342737;19;20344;-64
2022/04/11 05:37:16;;;;;;;0.08;0.08;;;;;;;10.51;55.01;100051.34;7356119;19;20044;-64
2022/04/11 05:39:42;;;;;;;0.00;0.00;;;;;;;10.54;55.07;100055.59;7359509;19;20043;-64
2022/04/11 05:42:08;;;;;;;0.00;0.00;;;;;;;10.54;55.03;100040.81;7354133;19;20042;-64
2022/04/11 05:44:34;;;;;;;0.00;0.00;;;;;;;10.56;54.47;100041.63;7357306;19;20058;-65
2022/04/11 05:46:59;;;;;;;0.05;0.05;;;;;;;10.58;54.80;100049.38;7350954;19;25380;-65
2022/04/11 05:49:25;;;;;;;0.00;0.00;;;;;;;10.55;54.50;100049.50;7359571;19;20018;-64
2022/04/11 05:51:50;;;;;;;0.00;0.00;;;;;;;10.61;54.73;100042.31;7357080;19;20015;-65
2022/04/11 05:54:16;;;;;;;0.00;0.00;;;;;;;10.63;54.63;100045.72;7356853;19;20006;-64
2022/04/11 05:56:42;;;;;;;0.00;0.00;;;;;;;10.59;54.39;100028.47;7357279;19;20018;-65
2022/04/11 05:59:08;;;;;;;0.00;0.00;;;;;;;10.58;54.27;100031.09;7342812;19;20018;-63
2022/04/11 06:01:34;;;;;;;0.00;0.00;;;;;;;10.69;54.52;100051.63;7360449;19;20006;-65
2022/04/11 06:04:00;;;;;;;0.00;0.00;;;;;;;10.70;54.32;100055.97;7341294;19;20086;-63
2022/04/11 06:06:26;;;;;;;0.00;0.00;;;;;;;10.70;54.35;100050.75;7356422;19;20119;-65
2022/04/11 06:08:51;;;;;;;0.08;0.08;;;;;;;10.72;54.64;100055.00;7356118;19;20036;-64
2022/04/11 06:11:17;;;;;;;0.00;0.00;;;;;;;10.73;54.52;100059.31;7348049;19;20017;-64
2022/04/11 06:13:45;;;;;;;0.00;0.00;;;;;;;10.75;54.37;100065.34;7353255;19;20070;-65
2022/04/11 06:16:11;;;;;;;0.00;0.00;;;;;;;10.70;54.26;100045.53;7349695;19;20797;-64
2022/04/11 06:18:37;;;;;;;0.00;0.00;;;;;;;10.77;54.15;100052.25;7344907;19;20002;-64
2022/04/11 06:21:02;;;;;;;0.00;0.00;;;;;;;10.79;54.37;100055.66;7349648;19;20017;-65
2022/04/11 06:23:27;;;;;;;0.08;0.08;;;;;;;10.79;54.63;100047.81;7350166;19;20843;-64
2022/04/11 06:25:53;;;;;;;0.00;0.00;;;;;;;10.80;54.48;100047.78;7353119;19;20048;-64
2022/04/11 06:28:18;;;;;;;0.00;0.00;;;;;;;10.78;54.25;100039.13;7336297;19;21206;-65
2022/04/11 06:30:44;;;;;;;0.00;0.00;;;;;;;10.84;54.04;100045.88;7352116;19;20015;-64
2022/04/11 06:33:09;;;;;;;0.00;0.00;;;;;;;10.84;53.82;100043.28;7351517;19;20728;-64
2022/04/11 06:35:35;;;;;;;0.00;0.00;;;;;;;10.86;53.99;100028.44;7343467;19;20002;-64
2022/04/11 06:38:00;;;;;;;0.00;0.00;;;;;;;10.87;54.03;100014.47;7351458;19;20019;-64
2022/04/11 06:40:26;;;;;;;0.00;0.00;;;;;;;10.88;53.85;100016.16;7341840;19;20858;-64
2022/04/11 06:42:51;;;;;;;0.00;0.00;;;;;;;10.88;54.26;100010.94;7345074;19;20363;-65
2022/04/11 06:45:16;;;;;;;0.00;0.00;;;;;;;10.88;53.77;100003.94;7332210;19;20051;-64
2022/04/11 06:47:47;;;;;;;0.10;0.10;;;;;;;10.90;53.93;99993.47;7331432;19;20485;-64
2022/04/11 06:50:13;;;;;;;0.00;0.00;;;;;;;10.85;53.51;99979.72;7323979;19;20007;-64
2022/04/11 06:52:38;;;;;;;0.00;0.00;;;;;;;10.89;53.76;99986.50;7326357;19;20034;-64
2022/04/11 06:55:05;;;;;;;0.00;0.00;;;;;;;10.96;53.40;99997.63;7330656;19;20481;-61
2022/04/11 06:57:30;;;;;;;0.00;0.00;;;;;;;10.96;53.54;99995.84;7312328;19;20034;-64
2022/04/11 06:59:56;;;;;;;0.00;0.00;;;;;;;10.96;53.72;99988.00;7341439;19;20011;-64
2022/04/11 07:02:21;;;;;;;0.00;0.00;;;;;;;10.99;53.72;99980.06;7350558;19;20020;-64
2022/04/11 07:04:47;;;;;;;0.10;0.10;;;;;;;11.00;53.74;99979.16;7357948;19;20019;-64
2022/04/11 07:07:12;;;;;;;0.00;0.00;;;;;;;11.02;54.09;99979.94;7357432;19;20014;-64
2022/04/11 07:09:37;;;;;;;0.03;0.03;;;;;;;11.03;53.97;99965.13;7347878;19;20015;-64
2022/04/11 07:12:03;;;;;;;0.00;0.00;;;;;;;10.96;54.01;99951.44;7357524;19;20014;-64
2022/04/11 07:14:29;;;;;;;0.03;0.03;;;;;;;10.92;53.61;99936.78;7353323;19;20010;-64
2022/04/11 07:16:54;;;;;;;0.00;0.00;;;;;;;11.09;53.92;99955.28;7357677;19;20030;-64
2022/04/11 07:19:20;;;;;;;0.00;0.00;;;;;;;11.10;53.83;99951.78;7356810;19;20030;-64
2022/04/11 07:21:47;;;;;;;0.00;0.00;;;;;;;11.14;53.34;99937.69;7359649;19;20012;-64
2022/04/11 07:24:13;;;;;;;0.00;0.00;;;;;;;11.08;53.88;99931.84;7351966;19;20786;-64
2022/04/11 07:26:40;;;;;;;0.00;0.00;;;;;;;11.17;53.74;99937.59;7349815;19;20477;-65
2022/04/11 07:29:06;;;;;;;0.00;0.00;;;;;;;11.09;53.43;99921.31;7361322;19;20018;-64
2022/04/11 07:31:31;;;;;;;0.00;0.00;;;;;;;11.27;53.33;99937.25;7340852;19;20733;-64
2022/04/11 07:33:57;;;;;;;0.00;0.00;;;;;;;11.31;53.72;99926.63;7350422;19;20866;-64
2022/04/11 07:36:22;;;;;;;0.00;0.00;;;;;;;11.34;53.74;99929.09;7353837;19;20473;-64
2022/04/11 07:38:47;;;;;;;0.00;0.00;;;;;;;11.40;53.11;99925.38;7353338;19;20576;-64
2022/04/11 07:41:13;;;;;;;0.00;0.00;;;;;;;11.44;53.38;99930.44;7359967;19;20018;-65
2022/04/11 07:43:38;;;;;;;0.00;0.00;;;;;;;11.50;53.21;99931.97;7353876;19;20011;-64
2022/04/11 07:46:05;;;;;;;0.10;0.10;;;;;;;11.54;53.54;99932.72;7355332;19;20014;-64
2022/04/11 07:48:32;;;;;;;0.00;0.00;;;;;;;11.59;53.40;99939.47;7362648;19;20018;-64
2022/04/11 07:50:57;;;;;;;0.00;0.00;;;;;;;11.59;53.51;99939.47;7354323;19;20651;-64
2022/04/11 07:53:23;;;;;;;0.00;0.00;;;;;;;11.68;53.53;99933.88;7361265;19;20022;-64
2022/04/11 07:55:48;;;;;;;0.00;0.00;;;;;;;11.75;53.56;99926.63;7350450;19;20031;-65
2022/04/11 07:58:15;;;;;;;0.00;0.00;;;;;;;11.80;53.38;99931.69;7348375;19;20007;-64
2022/04/11 08:00:41;;;;;;;0.00;0.00;;;;;;;11.84;53.61;99931.53;7355600;19;20034;-64
2022/04/11 08:03:06;;;;;;;0.00;0.00;;;;;;;11.91;53.56;99927.78;7354422;19;20010;-64
2022/04/11 08:05:32;;;;;;;0.03;0.03;;;;;;;11.96;53.31;99927.56;7352555;19;20014;-64
2022/04/11 08:07:57;;;;;;;0.00;0.00;;;;;;;12.01;53.39;99932.59;7355658;19;20051;-64
2022/04/11 08:10:23;;;;;;;0.00;0.00;;;;;;;11.93;53.33;99912.00;7360485;19;20014;-65
2022/04/11 08:12:52;;;;;;;0.00;0.00;;;;;;;12.13;53.47;99935.59;7351388;19;20526;-64
2022/04/11 08:15:18;;;;;;;0.00;0.00;;;;;;;12.19;52.93;99930.09;7347123;19;20006;-64
2022/04/11 08:17:43;;;;;;;0.00;0.00;;;;;;;12.25;52.32;99928.13;7356662;19;20010;-65
2022/04/11 08:20:09;;;;;;;0.00;0.00;;;;;;;12.30;52.57;99929.63;7351940;19;20470;-64
2022/04/11 08:22:34;;;;;;;0.00;0.00;;;;;;;12.34;52.12;99928.59;7353510;19;20093;-64
2022/04/11 08:25:00;;;;;;;0.00;0.00;;;;;;;12.36;52.39;99923.28;7358743;19;20014;-63
2022/04/11 08:27:25;;;;;;;0.00;0.00;;;;;;;12.48;52.82;99920.16;7344168;19;20404;-63
2022/04/11 08:29:50;;;;;;;0.00;0.00;;;;;;;12.56;52.72;99917.19;7356472;19;20018;-64
2022/04/11 08:32:18;;;;;;;0.00;0.00;;;;;;;12.61;52.40;99916.06;7348761;19;20350;-65
2022/04/11 08:34:43;;;;;;;0.00;0.00;;;;;;;12.65;52.69;99912.41;7354709;19;20126;-64
2022/04/11 08:37:09;;;;;;;0.00;0.00;;;;;;;12.73;52.87;99914.72;7352784;19;20832;-64
2022/04/11 08:39:34;;;;;;;0.00;0.00;;;;;;;12.82;52.53;99909.03;7356799;19;20010;-64
2022/04/11 08:42:01;;;;;;;0.10;0.10;;;;;;;12.88;52.70;99902.69;7359446;19;20014;-65
2022/04/11 08:44:27;;;;;;;0.00;0.00;;;;;;;13.02;52.46;99900.28;7352246;19;20021;-65
2022/04/11 08:46:59;;;;;;;0.10;0.10;;;;;;;13.20;52.13;99901.22;7359301;19;20026;-64
2022/04/11 08:49:28;;;;;;;0.00;0.00;;;;;;;13.34;52.71;99895.38;7359014;19;20061;-64
2022/04/11 08:51:53;;;;;;;0.00;0.00;;;;;;;13.51;51.84;99892.81;7352594;19;20014;-64
2022/04/11 08:54:20;;;;;;;0.10;0.10;;;;;;;13.65;51.73;99877.25;7350943;19;20034;-64
2022/04/11 08:56:45;;;;;;;0.00;0.00;;;;;;;13.87;51.04;99879.66;7352397;19;20025;-64
2022/04/11 08:59:10;;;;;;;0.00;0.00;;;;;;;14.00;50.87;99869.41;7360294;19;20014;-64
2022/04/11 09:01:36;;;;;;;0.00;0.00;;;;;;;13.82;50.45;99800.31;7353255;19;20014;-63
2022/04/11 09:04:01;;;;;;;0.05;0.05;;;;;;;14.24;49.50;99849.81;7354369;19;20050;-64
2022/04/11 09:06:31;;;;;;;0.00;0.00;;;;;;;14.45;49.62;99855.72;7352258;19;20023;-64
2022/04/11 09:08:58;;;;;;;0.00;0.00;;;;;;;14.61;48.45;99850.53;7358134;19;20064;-64
2022/04/11 09:11:37;;;;;;;0.10;0.10;;;;;;;14.84;49.37;99838.78;7347324;19;20025;-64
2022/04/11 09:14:04;;;;;;;0.00;0.00;;;;;;;14.88;47.09;99818.44;7356022;19;20070;-64
2022/04/11 09:16:56;;;;;;;0.00;0.00;;;;;;;15.09;48.86;99843.56;7355995;19;20676;-64
2022/04/11 09:19:24;;;;;;;0.03;0.03;;;;;;;15.02;46.03;99831.69;7351293;19;20007;-64
2022/04/11 09:21:50;;;;;;;0.00;0.00;;;;;;;14.97;45.87;99834.56;7354531;19;20467;-64
2022/04/11 09:24:19;;;;;;;0.00;0.00;;;;;;;14.92;45.41;99833.13;7354893;19;20588;-64
2022/04/11 09:26:46;;;;;;;0.00;0.00;;;;;;;14.86;45.60;99839.56;7357227;19;20014;-64
2022/04/11 09:29:12;;;;;;;0.10;0.10;;;;;;;14.86;46.49;99828.22;7347165;19;20089;-64
2022/04/11 09:31:38;;;;;;;0.00;0.00;;;;;;;14.92;45.50;99830.50;7350956;19;20146;-64
2022/04/11 09:34:21;;;;;;;0.05;0.05;;;;;;;15.00;46.87;99836.16;7353772;19;20011;-64
2022/04/11 09:36:52;;;;;;;0.00;0.00;;;;;;;14.99;45.71;99845.00;7348457;19;20011;-64
2022/04/11 09:39:26;;;;;;;0.03;0.03;;;;;;;14.99;45.66;99839.72;7354070;19;20014;-64
2022/04/11 09:41:52;;;;;;;0.03;0.03;;;;;;;14.93;44.70;99845.34;7349977;19;20010;-64
2022/04/11 09:44:23;;;;;;;0.00;0.00;;;;;;;14.93;44.60;99850.59;7350030;19;22778;-64
2022/04/11 09:46:59;;;;;;;0.00;0.00;;;;;;;14.87;45.38;99851.78;7352326;19;20003;-64
2022/04/11 09:49:25;;;;;;;0.00;0.00;;;;;;;14.69;44.52;99823.84;7349623;19;20044;-64
2022/04/11 09:52:20;;;;;;;0.00;0.00;;;;;;;14.85;46.47;99837.00;7353308;19;20082;-63
2022/04/11 09:54:47;;;;;;;0.00;0.00;;;;;;;14.82;45.64;99837.19;7249869;19;2004224;-64
2022/04/11 09:57:15;;;;;;;0.00;0.00;;;;;;;14.81;45.87;99823.19;7351256;19;20006;-64
2022/04/11 09:59:41;;;;;;;0.00;0.00;;;;;;;14.81;45.46;99835.50;7341854;19;20006;-64
2022/04/11 10:02:08;;;;;;;0.00;0.00;;;;;;;14.79;45.43;99844.28;7353317;19;20010;-64
2022/04/11 10:04:34;;;;;;;0.00;0.00;;;;;;;14.81;45.64;99841.59;7345562;19;20006;-64
2022/04/11 10:07:01;;;;;;;0.10;0.10;;;;;;;14.76;44.01;99830.47;7348772;19;20031;-64
2022/04/11 10:09:26;;;;;;;0.00;0.00;;;;;;;14.69;44.34;99822.06;7350585;19;20018;-64
2022/04/11 10:11:54;;;;;;;0.00;0.00;;;;;;;14.63;44.98;99817.13;7349146;19;20832;-63
2022/04/11 10:14:25;;;;;;;0.00;0.00;;;;;;;14.57;44.49;99833.22;7352117;19;20006;-64
2022/04/11 10:16:56;;;;;;;0.00;0.00;;;;;;;14.50;44.41;99837.97;7343650;19;20010;-64
2022/04/11 10:19:25;;;;;;;0.00;0.00;;;;;;;14.48;44.62;99841.59;7353742;19;20077;-64
2022/04/11 10:21:54;;;;;;;0.00;0.00;;;;;;;14.43;45.39;99840.94;7345867;19;20069;-64
2022/04/11 10:24:33;;;;;;;0.10;0.10;;;;;;;14.45;46.19;99849.63;7353856;19;20090;-64
2022/04/11 10:27:22;;;;;;;0.00;0.00;;;;;;;14.54;46.49;99857.03;7352561;19;20006;-64
2022/04/11 10:29:52;;;;;;;0.00;0.00;;;;;;;14.59;45.80;99873.41;7352235;19;20003;-64
2022/04/11 10:32:20;;;;;;;0.00;0.00;;;;;;;14.67;45.86;99873.00;7347924;19;20038;-64
2022/04/11 10:35:03;;;;;;;0.00;0.00;;;;;;;14.78;46.11;99874.13;7359818;19;20018;-63
2022/04/11 10:37:49;;;;;;;0.00;0.00;;;;;;;14.87;45.42;99877.22;7358776;19;20070;-64
2022/04/11 10:40:17;;;;;;;0.00;0.00;;;;;;;14.89;44.67;99870.09;7353879;19;20828;-65
2022/04/11 10:43:22;;;;;;;0.00;0.00;;;;;;;14.86;45.16;99859.75;7360349;19;20450;-65
2022/04/11 10:45:58;;;;;;;0.00;0.00;;;;;;;14.77;45.21;99859.31;7261044;19;2004400;-64
2022/04/11 10:48:57;;;;;;;0.00;0.00;;;;;;;14.66;45.21;99848.53;7337850;19;20014;-63
2022/04/11 10:51:22;;;;;;;0.00;0.00;;;;;;;14.56;44.58;99820.19;7241120;19;2004556;-63
2022/04/11 10:54:19;;;;;;;0.00;0.00;;;;;;;14.51;45.56;99826.53;7337482;19;20784;-64
2022/04/11 10:56:55;;;;;;;0.00;0.00;;;;;;;14.44;45.52;99813.75;7230320;19;2004225;-64
2022/04/11 10:59:28;;;;;;;0.00;0.00;;;;;;;14.38;45.47;99808.81;7334671;19;20018;-64
2022/04/11 11:01:56;;;;;;;0.10;0.10;;;;;;;14.27;47.20;99798.88;7341388;19;20995;-65
2022/04/11 11:04:22;;;;;;;0.00;0.00;;;;;;;14.23;47.46;99782.44;7349451;19;20055;-64
2022/04/11 11:07:24;;;;;;;0.00;0.00;;;;;;;14.21;46.89;99754.56;7360195;19;20107;-64
2022/04/11 11:10:08;;;;;;;0.03;0.03;;;;;;;14.11;48.04;99754.22;7248511;19;2004759;-64
2022/04/11 11:12:33;;;;;;;0.00;0.00;;;;;;;13.91;49.03;99736.03;7360007;19;20020;-63
2022/04/11 11:15:25;;;;;;;0.00;0.00;;;;;;;13.89;48.28;99762.34;7349440;19;20014;-64
2022/04/11 11:17:57;;;;;;;0.00;0.00;;;;;;;13.82;49.77;99754.84;7247515;19;2004248;-64
2022/04/11 11:20:23;;;;;;;0.00;0.00;;;;;;;13.69;51.50;99755.50;7359835;19;20842;-64
2022/04/11 11:23:19;;;;;;;0.00;0.00;;;;;;;13.61;49.49;99755.03;7351833;19;20061;-64
2022/04/11 11:25:45;;;;;;;0.00;0.00;;;;;;;13.46;53.65;99737.44;7258017;19;2004457;-64
2022/04/11 11:28:13;;;;;;;0.00;0.00;;;;;;;13.34;54.91;99727.56;7352868;19;20090;-65
2022/04/11 11:30:39;;;;;;;0.00;0.00;;;;;;;13.15;54.94;99702.22;7361951;19;20871;-64